sensor_id;sensor_type;location;lat;lon;timestamp;pressure;altitude;pressure_sealevel;temperature;humidity
34297;BME280;20564;42.902;25.336;2023-07-13T00:00:57;97304.31;;;19.88;100.00
34297;BME280;20564;42.902;25.336;2023-07-13T00:03:25;97306.56;;;19.84;100.00
34297;BME280;20564;42.902;25.336;2023-07-13T00:05:59;97299.31;;;19.78;100.00
34297;BME280;20564;42.902;25.336;2023-07-13T00:08:30;97298.72;;;19.76;100.00
34297;BME280;20564;42.902;25.336;2023-07-13T00:11:01;97299.31;;;19.71;100.00
34297;BME280;20564;42.902;25.336;2023-07-13T00:13:30;97294.34;;;19.68;100.00
34297;BME280;20564;42.902;25.336;2023-07-13T00:15:58;97297.06;;;19.75;100.00
34297;BME280;20564;42.902;25.336;2023-07-13T00:18:29;97299.31;;;19.78;100.00
34297;BME280;20564;42.902;25.336;2023-07-13T00:21:00;97297.88;;;19.75;100.00
34297;BME280;20564;42.902;25.336;2023-07-13T00:23:36;97297.88;;;19.75;100.00
34297;BME280;20564;42.902;25.336;2023-07-13T00:26:06;97292.72;;;19.67;100.00
34297;BME280;20564;42.902;25.336;2023-07-13T00:28:35;97291.38;;;19.57;100.00
34297;BME280;20564;42.902;25.336;2023-07-13T00:31:02;97295.28;;;19.61;100.00
34297;BME280;20564;42.902;25.336;2023-07-13T00:33:34;97288.50;;;19.58;100.00
34297;BME280;20564;42.902;25.336;2023-07-13T00:36:03;97282.28;;;19.51;100.00
34297;BME280;20564;42.902;25.336;2023-07-13T00:38:31;97285.75;;;19.51;100.00
34297;BME280;20564;42.902;25.336;2023-07-13T00:41:03;97292.94;;;19.51;100.00
34297;BME280;20564;42.902;25.336;2023-07-13T00:43:31;97279.38;;;19.46;100.00
34297;BME280;20564;42.902;25.336;2023-07-13T00:46:09;97283.09;;;19.51;100.00
34297;BME280;20564;42.902;25.336;2023-07-13T00:48:38;97284.34;;;19.49;100.00
34297;BME280;20564;42.902;25.336;2023-07-13T00:51:10;97285.28;;;19.41;100.00
34297;BME280;20564;42.902;25.336;2023-07-13T00:53:38;97282.59;;;19.41;100.00
34297;BME280;20564;42.902;25.336;2023-07-13T00:56:07;97282.16;;;19.38;100.00
34297;BME280;20564;42.902;25.336;2023-07-13T00:58:36;97274.94;;;19.32;100.00
34297;BME280;20564;42.902;25.336;2023-07-13T01:01:03;97273.31;;;19.31;100.00
34297;BME280;20564;42.902;25.336;2023-07-13T01:03:30;97281.25;;;19.24;100.00
34297;BME280;20564;42.902;25.336;2023-07-13T01:06:00;97279.78;;;19.21;100.00
34297;BME280;20564;42.902;25.336;2023-07-13T01:08:28;97280.47;;;19.30;100.00
34297;BME280;20564;42.902;25.336;2023-07-13T01:10:57;97275.13;;;19.30;100.00
34297;BME280;20564;42.902;25.336;2023-07-13T01:13:25;97274.88;;;19.25;100.00
34297;BME280;20564;42.902;25.336;2023-07-13T01:15:55;97268.91;;;19.23;100.00
34297;BME280;20564;42.902;25.336;2023-07-13T01:18:27;97266.66;;;19.20;100.00
34297;BME280;20564;42.902;25.336;2023-07-13T01:21:01;97275.66;;;19.19;100.00
34297;BME280;20564;42.902;25.336;2023-07-13T01:23:30;97286.91;;;19.14;100.00
34297;BME280;20564;42.902;25.336;2023-07-13T01:26:02;97265.72;;;19.06;100.00
34297;BME280;20564;42.902;25.336;2023-07-13T01:28:29;97276.16;;;19.08;100.00
34297;BME280;20564;42.902;25.336;2023-07-13T01:30:58;97272.63;;;19.00;100.00
34297;BME280;20564;42.902;25.336;2023-07-13T01:33:30;97274.28;;;19.01;100.00
34297;BME280;20564;42.902;25.336;2023-07-13T01:35:58;97274.28;;;19.01;100.00
34297;BME280;20564;42.902;25.336;2023-07-13T01:38:26;97275.94;;;19.02;100.00
34297;BME280;20564;42.902;25.336;2023-07-13T01:40:56;97268.31;;;18.99;100.00
34297;BME280;20564;42.902;25.336;2023-07-13T01:43:25;97272.44;;;19.02;100.00
34297;BME280;20564;42.902;25.336;2023-07-13T01:45:52;97269.19;;;19.07;100.00
34297;BME280;20564;42.902;25.336;2023-07-13T01:48:26;97269.13;;;19.00;100.00
34297;BME280;20564;42.902;25.336;2023-07-13T01:50:54;97268.31;;;18.99;100.00
34297;BME280;20564;42.902;25.336;2023-07-13T01:53:22;97259.22;;;18.94;100.00
34297;BME280;20564;42.902;25.336;2023-07-13T01:55:49;97269.25;;;18.92;100.00
34297;BME280;20564;42.902;25.336;2023-07-13T01:58:17;97274.03;;;18.96;100.00
34297;BME280;20564;42.902;25.336;2023-07-13T02:00:48;97275.66;;;18.97;100.00
34297;BME280;20564;42.902;25.336;2023-07-13T02:03:17;97279.72;;;18.93;100.00
34297;BME280;20564;42.902;25.336;2023-07-13T02:05:45;97274.78;;;18.90;100.00
34297;BME280;20564;42.902;25.336;2023-07-13T02:08:13;97272.97;;;18.91;100.00
34297;BME280;20564;42.902;25.336;2023-07-13T02:10:40;97278.84;;;18.86;100.00
34297;BME280;20564;42.902;25.336;2023-07-13T02:13:08;97271.41;;;18.82;100.00
34297;BME280;20564;42.902;25.336;2023-07-13T02:15:38;97273.91;;;18.83;100.00
34297;BME280;20564;42.902;25.336;2023-07-13T02:18:07;97278.81;;;18.79;100.00
34297;BME280;20564;42.902;25.336;2023-07-13T02:20:35;97266.84;;;18.75;100.00
34297;BME280;20564;42.902;25.336;2023-07-13T02:23:02;97271.78;;;18.78;100.00
34297;BME280;20564;42.902;25.336;2023-07-13T02:25:34;97270.53;;;18.74;100.00
34297;BME280;20564;42.902;25.336;2023-07-13T02:28:02;97273.56;;;18.71;100.00
34297;BME280;20564;42.902;25.336;2023-07-13T02:30:34;97270.41;;;18.68;100.00
34297;BME280;20564;42.902;25.336;2023-07-13T02:33:01;97277.16;;;18.64;100.00
34297;BME280;20564;42.902;25.336;2023-07-13T02:35:29;97277.78;;;18.66;100.00
34297;BME280;20564;42.902;25.336;2023-07-13T02:37:56;97274.69;;;18.62;100.00
34297;BME280;20564;42.902;25.336;2023-07-13T02:40:23;97274.09;;;18.67;100.00
34297;BME280;20564;42.902;25.336;2023-07-13T02:42:51;97276.53;;;18.62;100.00
34297;BME280;20564;42.902;25.336;2023-07-13T02:45:19;97276.53;;;18.62;100.00
34297;BME280;20564;42.902;25.336;2023-07-13T02:47:46;97279.00;;;18.63;100.00
34297;BME280;20564;42.902;25.336;2023-07-13T02:50:14;97281.03;;;18.61;100.00
34297;BME280;20564;42.902;25.336;2023-07-13T02:52:49;97285.34;;;18.62;100.00
34297;BME280;20564;42.902;25.336;2023-07-13T02:55:16;97281.84;;;18.62;100.00
34297;BME280;20564;42.902;25.336;2023-07-13T02:57:43;97280.59;;;18.58;100.00
34297;BME280;20564;42.902;25.336;2023-07-13T03:00:10;97285.53;;;18.61;100.00
34297;BME280;20564;42.902;25.336;2023-07-13T03:02:37;97282.03;;;18.60;100.00
34297;BME280;20564;42.902;25.336;2023-07-13T03:05:05;97284.63;;;18.53;100.00
34297;BME280;20564;42.902;25.336;2023-07-13T03:07:31;97281.94;;;18.53;100.00
34297;BME280;20564;42.902;25.336;2023-07-13T03:09:59;97293.25;;;18.55;100.00
34297;BME280;20564;42.902;25.336;2023-07-13T03:12:26;97281.03;;;18.61;100.00
34297;BME280;20564;42.902;25.336;2023-07-13T03:14:53;97289.84;;;18.62;100.00
34297;BME280;20564;42.902;25.336;2023-07-13T03:17:20;97284.78;;;18.67;100.00
34297;BME280;20564;42.902;25.336;2023-07-13T03:19:47;97280.63;;;18.64;100.00
34297;BME280;20564;42.902;25.336;2023-07-13T03:22:18;97277.44;;;18.69;100.00
34297;BME280;20564;42.902;25.336;2023-07-13T03:24:45;97273.56;;;18.71;100.00
34297;BME280;20564;42.902;25.336;2023-07-13T03:27:13;97279.88;;;18.70;100.00
34297;BME280;20564;42.902;25.336;2023-07-13T03:29:40;97281.03;;;18.76;100.00
34297;BME280;20564;42.902;25.336;2023-07-13T03:32:08;97280.38;;;18.74;100.00
34297;BME280;20564;42.902;25.336;2023-07-13T03:34:35;97278.34;;;18.76;100.00
34297;BME280;20564;42.902;25.336;2023-07-13T03:37:04;97284.59;;;18.83;100.00
34297;BME280;20564;42.902;25.336;2023-07-13T03:39:31;97284.19;;;18.86;100.00
34297;BME280;20564;42.902;25.336;2023-07-13T03:41:58;97283.44;;;18.92;100.00
34297;BME280;20564;42.902;25.336;2023-07-13T03:44:25;97288.63;;;19.00;100.00
34297;BME280;20564;42.902;25.336;2023-07-13T03:46:52;97281.50;;;19.08;100.00
34297;BME280;20564;42.902;25.336;2023-07-13T03:49:19;97285.28;;;19.13;100.00
34297;BME280;20564;42.902;25.336;2023-07-13T03:51:46;97293.50;;;19.18;100.00
34297;BME280;20564;42.902;25.336;2023-07-13T03:54:13;97289.88;;;19.26;100.00
34297;BME280;20564;42.902;25.336;2023-07-13T03:56:40;97285.41;;;19.33;100.00
34297;BME280;20564;42.902;25.336;2023-07-13T03:59:07;97283.84;;;19.39;100.00
34297;BME280;20564;42.902;25.336;2023-07-13T04:01:34;97286.16;;;19.48;100.00
34297;BME280;20564;42.902;25.336;2023-07-13T04:04:01;97288.69;;;19.57;100.00
34297;BME280;20564;42.902;25.336;2023-07-13T04:06:31;97280.34;;;19.66;100.00
34297;BME280;20564;42.902;25.336;2023-07-13T04:09:00;97288.50;;;19.86;100.00
34297;BME280;20564;42.902;25.336;2023-07-13T04:11:30;97286.53;;;20.02;100.00
34297;BME280;20564;42.902;25.336;2023-07-13T04:13:58;97286.81;;;20.20;100.00
34297;BME280;20564;42.902;25.336;2023-07-13T04:16:25;97291.66;;;20.44;100.00
34297;BME280;20564;42.902;25.336;2023-07-13T04:18:53;97283.34;;;20.74;100.00
34297;BME280;20564;42.902;25.336;2023-07-13T04:21:21;97292.25;;;21.08;100.00
34297;BME280;20564;42.902;25.336;2023-07-13T04:23:49;97286.13;;;21.40;100.00
34297;BME280;20564;42.902;25.336;2023-07-13T04:26:16;97291.69;;;21.72;100.00
34297;BME280;20564;42.902;25.336;2023-07-13T04:28:43;97291.19;;;22.02;100.00
34297;BME280;20564;42.902;25.336;2023-07-13T04:31:13;97296.69;;;22.33;100.00
34297;BME280;20564;42.902;25.336;2023-07-13T04:33:44;97288.28;;;22.68;100.00
34297;BME280;20564;42.902;25.336;2023-07-13T04:36:15;97283.94;;;23.05;100.00
34297;BME280;20564;42.902;25.336;2023-07-13T04:38:44;97291.31;;;23.42;100.00
34297;BME280;20564;42.902;25.336;2023-07-13T04:41:12;97292.50;;;23.77;100.00
34297;BME280;20564;42.902;25.336;2023-07-13T04:43:43;97290.72;;;24.08;98.10
34297;BME280;20564;42.902;25.336;2023-07-13T04:46:12;97290.19;;;24.36;95.78
34297;BME280;20564;42.902;25.336;2023-07-13T04:48:41;97296.09;;;24.63;95.69
34297;BME280;20564;42.902;25.336;2023-07-13T04:51:08;97286.59;;;24.91;94.08
34297;BME280;20564;42.902;25.336;2023-07-13T04:53:36;97289.06;;;25.22;92.43
34297;BME280;20564;42.902;25.336;2023-07-13T04:56:06;97289.69;;;25.48;92.02
34297;BME280;20564;42.902;25.336;2023-07-13T04:58:33;97292.50;;;25.77;91.59
34297;BME280;20564;42.902;25.336;2023-07-13T05:01:02;97284.56;;;26.05;89.56
34297;BME280;20564;42.902;25.336;2023-07-13T05:03:30;97290.59;;;26.36;89.52
34297;BME280;20564;42.902;25.336;2023-07-13T05:06:11;97286.38;;;26.52;90.42
34297;BME280;20564;42.902;25.336;2023-07-13T05:08:38;97290.94;;;26.80;88.45
34297;BME280;20564;42.902;25.336;2023-07-13T05:11:05;97283.19;;;27.12;86.24
34297;BME280;20564;42.902;25.336;2023-07-13T05:13:34;97289.94;;;27.43;82.36
34297;BME280;20564;42.902;25.336;2023-07-13T05:16:05;97288.78;;;27.73;80.03
34297;BME280;20564;42.902;25.336;2023-07-13T05:18:35;97281.06;;;27.98;74.65
34297;BME280;20564;42.902;25.336;2023-07-13T05:21:08;97286.56;;;28.25;75.18
34297;BME280;20564;42.902;25.336;2023-07-13T05:23:37;97293.13;;;28.51;72.67
34297;BME280;20564;42.902;25.336;2023-07-13T05:26:04;97283.94;;;28.74;71.02
34297;BME280;20564;42.902;25.336;2023-07-13T05:28:35;97275.84;;;29.01;70.00
34297;BME280;20564;42.902;25.336;2023-07-13T05:31:03;97278.47;;;29.23;69.04
34297;BME280;20564;42.902;25.336;2023-07-13T05:33:31;97289.28;;;29.50;73.19
34297;BME280;20564;42.902;25.336;2023-07-13T05:35:57;97286.25;;;29.74;72.15
34297;BME280;20564;42.902;25.336;2023-07-13T05:38:24;97283.63;;;29.89;70.90
34297;BME280;20564;42.902;25.336;2023-07-13T05:40:54;97286.69;;;30.03;72.82
34297;BME280;20564;42.902;25.336;2023-07-13T05:43:22;97293.63;;;30.26;68.16
34297;BME280;20564;42.902;25.336;2023-07-13T05:45:52;97291.78;;;30.42;63.66
34297;BME280;20564;42.902;25.336;2023-07-13T05:48:20;97291.06;;;30.62;59.56
34297;BME280;20564;42.902;25.336;2023-07-13T05:50:47;97291.72;;;30.89;59.14
34297;BME280;20564;42.902;25.336;2023-07-13T05:53:14;97284.41;;;31.15;56.31
34297;BME280;20564;42.902;25.336;2023-07-13T05:55:45;97287.72;;;31.43;56.70
34297;BME280;20564;42.902;25.336;2023-07-13T05:58:20;97289.06;;;31.66;55.86
34297;BME280;20564;42.902;25.336;2023-07-13T06:00:47;97282.00;;;31.85;54.40
34297;BME280;20564;42.902;25.336;2023-07-13T06:03:15;97287.16;;;32.02;54.18
34297;BME280;20564;42.902;25.336;2023-07-13T06:05:42;97279.50;;;32.14;56.47
34297;BME280;20564;42.902;25.336;2023-07-13T06:08:09;97287.03;;;32.38;53.61
34297;BME280;20564;42.902;25.336;2023-07-13T06:10:36;97279.66;;;32.54;55.47
34297;BME280;20564;42.902;25.336;2023-07-13T06:13:03;97277.94;;;32.68;52.40
34297;BME280;20564;42.902;25.336;2023-07-13T06:15:30;97290.41;;;32.79;54.64
34297;BME280;20564;42.902;25.336;2023-07-13T06:17:57;97285.47;;;32.92;51.42
34297;BME280;20564;42.902;25.336;2023-07-13T06:20:28;97286.19;;;33.07;52.27
34297;BME280;20564;42.902;25.336;2023-07-13T06:22:55;97281.78;;;33.17;51.21
34297;BME280;20564;42.902;25.336;2023-07-13T06:25:26;97278.41;;;33.30;49.79
34297;BME280;20564;42.902;25.336;2023-07-13T06:27:53;97278.03;;;33.47;48.31
34297;BME280;20564;42.902;25.336;2023-07-13T06:30:20;97278.38;;;33.69;47.82
34297;BME280;20564;42.902;25.336;2023-07-13T06:32:49;97286.47;;;33.79;51.00
34297;BME280;20564;42.902;25.336;2023-07-13T06:35:16;97274.97;;;33.82;46.96
34297;BME280;20564;42.902;25.336;2023-07-13T06:37:43;97269.34;;;33.98;46.98
34297;BME280;20564;42.902;25.336;2023-07-13T06:40:10;97275.25;;;34.10;46.80
34297;BME280;20564;42.902;25.336;2023-07-13T06:42:37;97280.03;;;34.23;46.99
34297;BME280;20564;42.902;25.336;2023-07-13T06:45:05;97280.00;;;34.47;46.49
34297;BME280;20564;42.902;25.336;2023-07-13T06:47:32;97270.38;;;34.55;45.10
34297;BME280;20564;42.902;25.336;2023-07-13T06:50:00;97277.94;;;34.63;46.32
34297;BME280;20564;42.902;25.336;2023-07-13T06:52:27;97274.19;;;34.78;46.53
34297;BME280;20564;42.902;25.336;2023-07-13T06:54:54;97280.16;;;34.99;45.38
34297;BME280;20564;42.902;25.336;2023-07-13T06:57:22;97282.88;;;35.04;46.79
34297;BME280;20564;42.902;25.336;2023-07-13T06:59:49;97282.94;;;35.18;45.84
34297;BME280;20564;42.902;25.336;2023-07-13T07:02:17;97275.94;;;35.44;46.94
34297;BME280;20564;42.902;25.336;2023-07-13T07:04:48;97270.69;;;35.81;46.63
34297;BME280;20564;42.902;25.336;2023-07-13T07:07:17;97279.34;;;35.88;45.53
34297;BME280;20564;42.902;25.336;2023-07-13T07:09:44;97271.25;;;36.10;46.40
34297;BME280;20564;42.902;25.336;2023-07-13T07:12:25;97271.28;;;36.24;44.37
34297;BME280;20564;42.902;25.336;2023-07-13T07:14:56;97272.38;;;36.37;44.16
34297;BME280;20564;42.902;25.336;2023-07-13T07:17:24;97277.13;;;36.45;43.96
34297;BME280;20564;42.902;25.336;2023-07-13T07:19:53;97267.59;;;36.15;43.99
34297;BME280;20564;42.902;25.336;2023-07-13T07:22:21;97262.13;;;36.29;44.54
34297;BME280;20564;42.902;25.336;2023-07-13T07:24:48;97253.19;;;36.37;46.01
34297;BME280;20564;42.902;25.336;2023-07-13T07:27:16;97262.13;;;36.56;45.21
34297;BME280;20564;42.902;25.336;2023-07-13T07:29:45;97265.56;;;36.76;45.39
34297;BME280;20564;42.902;25.336;2023-07-13T07:32:33;97265.31;;;37.00;46.29
34297;BME280;20564;42.902;25.336;2023-07-13T07:35:04;97264.13;;;37.14;44.73
34297;BME280;20564;42.902;25.336;2023-07-13T07:37:31;97265.28;;;37.13;43.53
34297;BME280;20564;42.902;25.336;2023-07-13T07:40:05;97261.91;;;37.39;43.62
34297;BME280;20564;42.902;25.336;2023-07-13T07:42:35;97266.59;;;37.61;42.44
34297;BME280;20564;42.902;25.336;2023-07-13T07:45:02;97259.91;;;37.76;41.99
34297;BME280;20564;42.902;25.336;2023-07-13T07:47:33;97266.00;;;37.95;44.50
34297;BME280;20564;42.902;25.336;2023-07-13T07:50:03;97252.97;;;38.09;41.82
34297;BME280;20564;42.902;25.336;2023-07-13T07:52:35;97249.59;;;38.21;40.67
34297;BME280;20564;42.902;25.336;2023-07-13T07:55:04;97255.84;;;38.35;37.05
34297;BME280;20564;42.902;25.336;2023-07-13T07:57:35;97253.63;;;38.55;37.81
34297;BME280;20564;42.902;25.336;2023-07-13T08:00:08;97257.69;;;38.75;36.34
34297;BME280;20564;42.902;25.336;2023-07-13T08:02:54;97262.28;;;38.88;37.73
34297;BME280;20564;42.902;25.336;2023-07-13T08:05:42;97260.19;;;38.94;36.03
34297;BME280;20564;42.902;25.336;2023-07-13T08:08:21;97252.41;;;39.13;34.85
34297;BME280;20564;42.902;25.336;2023-07-13T08:10:49;97252.75;;;39.20;35.22
34297;BME280;20564;42.902;25.336;2023-07-13T08:13:16;97250.94;;;39.16;33.56
34297;BME280;20564;42.902;25.336;2023-07-13T08:15:43;97257.78;;;39.10;34.57
34297;BME280;20564;42.902;25.336;2023-07-13T08:18:10;97257.41;;;39.20;33.37
34297;BME280;20564;42.902;25.336;2023-07-13T08:20:39;97261.66;;;39.43;32.19
34297;BME280;20564;42.902;25.336;2023-07-13T08:23:09;97254.38;;;39.30;31.02
34297;BME280;20564;42.902;25.336;2023-07-13T08:25:37;97250.34;;;39.27;31.88
34297;BME280;20564;42.902;25.336;2023-07-13T08:28:04;97256.59;;;39.45;31.76
34297;BME280;20564;42.902;25.336;2023-07-13T08:30:31;97256.28;;;39.64;32.29
34297;BME280;20564;42.902;25.336;2023-07-13T08:33:01;97261.91;;;39.85;32.19
34297;BME280;20564;42.902;25.336;2023-07-13T08:35:40;97251.69;;;39.86;31.53
34297;BME280;20564;42.902;25.336;2023-07-13T08:38:07;97256.53;;;39.89;33.03
34297;BME280;20564;42.902;25.336;2023-07-13T08:40:34;97256.88;;;39.87;32.05
34297;BME280;20564;42.902;25.336;2023-07-13T08:43:01;97257.19;;;39.86;29.63
34297;BME280;20564;42.902;25.336;2023-07-13T08:45:51;97250.56;;;39.78;31.89
34297;BME280;20564;42.902;25.336;2023-07-13T08:48:28;97254.78;;;39.84;32.21
34297;BME280;20564;42.902;25.336;2023-07-13T08:51:08;97251.38;;;39.87;31.35
34297;BME280;20564;42.902;25.336;2023-07-13T08:53:40;97253.47;;;39.90;32.14
34297;BME280;20564;42.902;25.336;2023-07-13T08:56:18;97260.47;;;39.79;32.97
34297;BME280;20564;42.902;25.336;2023-07-13T08:58:47;97254.63;;;39.81;30.07
34297;BME280;20564;42.902;25.336;2023-07-13T09:04:02;97252.66;;;39.81;30.65
34297;BME280;20564;42.902;25.336;2023-07-13T09:15:36;97219.16;;;40.09;29.96
34297;BME280;20564;42.902;25.336;2023-07-13T09:18:14;97217.69;;;40.11;31.02
34297;BME280;20564;42.902;25.336;2023-07-13T09:20:48;97225.47;;;40.18;32.34
34297;BME280;20564;42.902;25.336;2023-07-13T09:23:19;97219.38;;;40.33;31.38
34297;BME280;20564;42.902;25.336;2023-07-13T09:25:50;97221.28;;;40.41;31.38
34297;BME280;20564;42.902;25.336;2023-07-13T09:28:27;97215.56;;;40.46;30.37
34297;BME280;20564;42.902;25.336;2023-07-13T09:31:23;97217.19;;;40.47;29.19
34297;BME280;20564;42.902;25.336;2023-07-13T09:33:51;97217.59;;;40.37;29.19
34297;BME280;20564;42.902;25.336;2023-07-13T09:36:20;97217.03;;;40.44;30.27
34297;BME280;20564;42.902;25.336;2023-07-13T09:42:00;97220.38;;;40.29;30.54
34297;BME280;20564;42.902;25.336;2023-07-13T09:44:34;97222.25;;;40.16;31.26
34297;BME280;20564;42.902;25.336;2023-07-13T09:47:02;97224.81;;;40.21;30.82
34297;BME280;20564;42.902;25.336;2023-07-13T09:49:35;97217.97;;;40.27;31.64
34297;BME280;20564;42.902;25.336;2023-07-13T09:52:06;97220.53;;;40.32;30.51
34297;BME280;20564;42.902;25.336;2023-07-13T09:54:35;97205.59;;;40.33;29.41
34297;BME280;20564;42.902;25.336;2023-07-13T09:57:12;97214.06;;;40.28;28.77
34297;BME280;20564;42.902;25.336;2023-07-13T09:59:45;97213.53;;;40.35;29.76
34297;BME280;20564;42.902;25.336;2023-07-13T10:04:57;97199.59;;;40.31;30.01
34297;BME280;20564;42.902;25.336;2023-07-13T10:07:25;97210.34;;;40.24;31.17
34297;BME280;20564;42.902;25.336;2023-07-13T10:10:00;97203.03;;;40.28;29.81
34297;BME280;20564;42.902;25.336;2023-07-13T10:12:29;97211.94;;;40.34;30.45
34297;BME280;20564;42.902;25.336;2023-07-13T10:14:59;97208.53;;;40.28;29.35
34297;BME280;20564;42.902;25.336;2023-07-13T10:17:47;97207.25;;;40.25;28.97
34297;BME280;20564;42.902;25.336;2023-07-13T10:20:15;97205.59;;;40.33;30.06
34297;BME280;20564;42.902;25.336;2023-07-13T10:22:52;97210.63;;;40.31;31.84
34297;BME280;20564;42.902;25.336;2023-07-13T10:25:26;97206.28;;;40.30;31.04
34297;BME280;20564;42.902;25.336;2023-07-13T10:28:31;97208.81;;;40.35;30.93
34297;BME280;20564;42.902;25.336;2023-07-13T10:31:01;97205.72;;;40.37;29.96
34297;BME280;20564;42.902;25.336;2023-07-13T10:33:29;97198.94;;;40.34;30.95
34297;BME280;20564;42.902;25.336;2023-07-13T10:36:12;97195.69;;;40.32;28.24
34297;BME280;20564;42.902;25.336;2023-07-13T10:39:03;97194.75;;;40.28;29.32
34297;BME280;20564;42.902;25.336;2023-07-13T10:41:35;97198.47;;;40.32;29.96
34297;BME280;20564;42.902;25.336;2023-07-13T10:44:04;97186.75;;;40.35;28.71
34297;BME280;20564;42.902;25.336;2023-07-13T10:46:36;97196.94;;;40.14;31.40
34297;BME280;20564;42.902;25.336;2023-07-13T10:49:07;97190.09;;;40.11;29.95
34297;BME280;20564;42.902;25.336;2023-07-13T10:51:36;97184.75;;;40.15;31.10
34297;BME280;20564;42.902;25.336;2023-07-13T10:59:40;97193.59;;;40.29;31.69
34297;BME280;20564;42.902;25.336;2023-07-13T11:02:12;97201.56;;;40.31;31.18
34297;BME280;20564;42.902;25.336;2023-07-13T11:04:47;97202.88;;;40.24;31.34
34297;BME280;20564;42.902;25.336;2023-07-13T11:10:02;97212.16;;;40.20;30.45
34297;BME280;20564;42.902;25.336;2023-07-13T11:12:51;97207.88;;;39.93;31.66
34297;BME280;20564;42.902;25.336;2023-07-13T11:15:43;97206.13;;;39.88;31.62
34297;BME280;20564;42.902;25.336;2023-07-13T11:18:23;97210.97;;;39.91;30.47
34297;BME280;20564;42.902;25.336;2023-07-13T11:24:15;97189.88;;;39.95;31.29
34297;BME280;20564;42.902;25.336;2023-07-13T11:26:50;97199.34;;;39.77;32.51
34297;BME280;20564;42.902;25.336;2023-07-13T11:29:31;97190.13;;;39.73;32.27
34297;BME280;20564;42.902;25.336;2023-07-13T11:32:10;97197.09;;;39.79;31.95
34297;BME280;20564;42.902;25.336;2023-07-13T11:34:48;97182.00;;;39.76;32.05
34297;BME280;20564;42.902;25.336;2023-07-13T11:37:17;97179.41;;;39.80;31.63
34297;BME280;20564;42.902;25.336;2023-07-13T11:39:51;97179.88;;;39.82;31.63
34297;BME280;20564;42.902;25.336;2023-07-13T11:42:20;97174.56;;;39.77;32.17
34297;BME280;20564;42.902;25.336;2023-07-13T11:44:50;97178.44;;;39.76;31.83
34297;BME280;20564;42.902;25.336;2023-07-13T11:47:40;97178.28;;;39.64;32.61
34297;BME280;20564;42.902;25.336;2023-07-13T11:50:18;97171.81;;;39.60;32.46
34297;BME280;20564;42.902;25.336;2023-07-13T11:52:45;97176.53;;;39.59;32.33
34297;BME280;20564;42.902;25.336;2023-07-13T11:55:17;97176.38;;;39.55;35.04
34297;BME280;20564;42.902;25.336;2023-07-13T11:57:56;97172.31;;;39.62;33.83
34297;BME280;20564;42.902;25.336;2023-07-13T12:00:28;97168.25;;;39.59;33.82
34297;BME280;20564;42.902;25.336;2023-07-13T12:03:00;97160.16;;;39.63;32.44
34297;BME280;20564;42.902;25.336;2023-07-13T12:05:29;97164.66;;;39.76;33.84
34297;BME280;20564;42.902;25.336;2023-07-13T12:07:58;97164.97;;;39.83;34.01
34297;BME280;20564;42.902;25.336;2023-07-13T12:10:29;97161.22;;;39.88;31.57
34297;BME280;20564;42.902;25.336;2023-07-13T12:12:59;97154.88;;;39.87;30.96
34297;BME280;20564;42.902;25.336;2023-07-13T12:15:39;97157.16;;;39.85;33.48
34297;BME280;20564;42.902;25.336;2023-07-13T12:18:19;97154.88;;;39.87;34.13
34297;BME280;20564;42.902;25.336;2023-07-13T12:20:48;97142.06;;;39.91;33.78
34297;BME280;20564;42.902;25.336;2023-07-13T12:25:54;97136.16;;;40.01;32.78
34297;BME280;20564;42.902;25.336;2023-07-13T12:31:04;97121.97;;;39.91;32.83
34297;BME280;20564;42.902;25.336;2023-07-13T12:33:33;97125.88;;;39.90;35.41
34297;BME280;20564;42.902;25.336;2023-07-13T12:36:02;97121.72;;;40.05;34.23
34297;BME280;20564;42.902;25.336;2023-07-13T12:38:31;97111.28;;;40.10;32.18
34297;BME280;20564;42.902;25.336;2023-07-13T12:41:01;97106.44;;;40.07;31.91
34297;BME280;20564;42.902;25.336;2023-07-13T12:43:34;97108.13;;;39.99;31.85
34297;BME280;20564;42.902;25.336;2023-07-13T12:46:17;97103.97;;;39.93;34.16
34297;BME280;20564;42.902;25.336;2023-07-13T12:48:48;97095.25;;;39.83;34.08
34297;BME280;20564;42.902;25.336;2023-07-13T12:51:30;97092.50;;;39.83;34.38
34297;BME280;20564;42.902;25.336;2023-07-13T12:54:07;97100.16;;;39.77;34.75
34297;BME280;20564;42.902;25.336;2023-07-13T12:56:39;97091.56;;;39.78;32.00
34297;BME280;20564;42.902;25.336;2023-07-13T12:59:18;97085.78;;;39.92;30.89
34297;BME280;20564;42.902;25.336;2023-07-13T13:01:50;97084.66;;;39.93;32.53
34297;BME280;20564;42.902;25.336;2023-07-13T13:04:17;97081.75;;;40.11;34.42
34297;BME280;20564;42.902;25.336;2023-07-13T13:06:49;97082.06;;;40.18;35.48
34297;BME280;20564;42.902;25.336;2023-07-13T13:09:27;97076.56;;;40.18;29.72
34297;BME280;20564;42.902;25.336;2023-07-13T13:11:54;97068.28;;;40.18;31.35
34297;BME280;20564;42.902;25.336;2023-07-13T13:14:21;97074.00;;;40.13;33.51
34297;BME280;20564;42.902;25.336;2023-07-13T13:16:51;97073.56;;;40.02;36.54
34297;BME280;20564;42.902;25.336;2023-07-13T13:19:25;97075.28;;;39.86;34.19
34297;BME280;20564;42.902;25.336;2023-07-13T13:21:54;97074.88;;;39.75;32.06
34297;BME280;20564;42.902;25.336;2023-07-13T13:24:24;97064.88;;;39.62;35.77
34297;BME280;20564;42.902;25.336;2023-07-13T13:26:56;97064.38;;;39.60;35.34
34297;BME280;20564;42.902;25.336;2023-07-13T13:29:27;97062.28;;;39.57;33.52
34297;BME280;20564;42.902;25.336;2023-07-13T13:31:55;97065.81;;;39.66;33.09
34297;BME280;20564;42.902;25.336;2023-07-13T13:34:23;97063.53;;;39.68;35.64
34297;BME280;20564;42.902;25.336;2023-07-13T13:36:52;97061.19;;;39.49;33.39